sensor_id;sensor_type;location;lat;lon;timestamp;P1;durP1;ratioP1;P2;durP2;ratioP2
67896;SDS011;54698;48.428;9.964;2022-10-16T00:00:57;6.00;;;2.28;;
67896;SDS011;54698;48.428;9.964;2022-10-16T00:03:23;8.98;;;2.60;;
67896;SDS011;54698;48.428;9.964;2022-10-16T00:05:49;6.38;;;2.15;;
67896;SDS011;54698;48.428;9.964;2022-10-16T00:08:15;7.22;;;2.85;;
67896;SDS011;54698;48.428;9.964;2022-10-16T00:10:40;6.43;;;3.00;;
67896;SDS011;54698;48.428;9.964;2022-10-16T00:13:08;6.50;;;2.60;;
67896;SDS011;54698;48.428;9.964;2022-10-16T00:15:33;6.43;;;3.00;;
67896;SDS011;54698;48.428;9.964;2022-10-16T00:18:01;7.20;;;2.42;;
67896;SDS011;54698;48.428;9.964;2022-10-16T00:20:27;8.75;;;2.38;;
67896;SDS011;54698;48.428;9.964;2022-10-16T00:22:53;7.65;;;2.35;;
67896;SDS011;54698;48.428;9.964;2022-10-16T00:25:19;5.22;;;2.15;;
67896;SDS011;54698;48.428;9.964;2022-10-16T00:27:45;6.95;;;2.25;;
67896;SDS011;54698;48.428;9.964;2022-10-16T00:30:12;5.53;;;2.45;;
67896;SDS011;54698;48.428;9.964;2022-10-16T00:32:38;7.32;;;2.25;;
67896;SDS011;54698;48.428;9.964;2022-10-16T00:35:05;5.70;;;2.00;;
67896;SDS011;54698;48.428;9.964;2022-10-16T00:37:31;5.38;;;2.42;;
67896;SDS011;54698;48.428;9.964;2022-10-16T00:39:57;5.60;;;2.08;;
67896;SDS011;54698;48.428;9.964;2022-10-16T00:42:23;7.38;;;2.22;;
67896;SDS011;54698;48.428;9.964;2022-10-16T00:44:49;6.85;;;2.13;;
67896;SDS011;54698;48.428;9.964;2022-10-16T00:47:21;6.05;;;2.10;;
67896;SDS011;54698;48.428;9.964;2022-10-16T00:49:52;4.75;;;2.03;;
67896;SDS011;54698;48.428;9.964;2022-10-16T00:52:24;5.38;;;2.13;;
67896;SDS011;54698;48.428;9.964;2022-10-16T00:54:50;5.15;;;2.05;;
67896;SDS011;54698;48.428;9.964;2022-10-16T00:57:18;8.05;;;2.65;;
67896;SDS011;54698;48.428;9.964;2022-10-16T00:59:44;5.55;;;2.20;;
67896;SDS011;54698;48.428;9.964;2022-10-16T01:02:11;5.45;;;2.33;;
67896;SDS011;54698;48.428;9.964;2022-10-16T01:04:41;8.80;;;2.97;;
67896;SDS011;54698;48.428;9.964;2022-10-16T01:07:10;4.75;;;2.20;;
67896;SDS011;54698;48.428;9.964;2022-10-16T01:09:47;6.15;;;2.53;;
67896;SDS011;54698;48.428;9.964;2022-10-16T01:12:28;4.95;;;2.53;;
67896;SDS011;54698;48.428;9.964;2022-10-16T01:15:06;5.88;;;2.75;;
67896;SDS011;54698;48.428;9.964;2022-10-16T01:17:40;9.30;;;3.28;;
67896;SDS011;54698;48.428;9.964;2022-10-16T01:20:13;6.43;;;2.90;;
67896;SDS011;54698;48.428;9.964;2022-10-16T01:22:55;6.07;;;2.67;;
67896;SDS011;54698;48.428;9.964;2022-10-16T01:25:31;5.70;;;2.90;;
67896;SDS011;54698;48.428;9.964;2022-10-16T01:28:17;5.38;;;2.85;;
67896;SDS011;54698;48.428;9.964;2022-10-16T01:30:47;6.30;;;2.65;;
67896;SDS011;54698;48.428;9.964;2022-10-16T01:33:19;5.72;;;2.50;;
67896;SDS011;54698;48.428;9.964;2022-10-16T01:35:47;6.72;;;1.85;;
67896;SDS011;54698;48.428;9.964;2022-10-16T01:38:19;5.05;;;2.10;;
67896;SDS011;54698;48.428;9.964;2022-10-16T01:43:22;6.70;;;2.35;;
67896;SDS011;54698;48.428;9.964;2022-10-16T01:48:20;4.55;;;2.00;;
67896;SDS011;54698;48.428;9.964;2022-10-16T01:50:50;5.78;;;2.67;;
67896;SDS011;54698;48.428;9.964;2022-10-16T01:53:20;6.95;;;2.13;;
67896;SDS011;54698;48.428;9.964;2022-10-16T01:55:47;5.07;;;1.80;;
67896;SDS011;54698;48.428;9.964;2022-10-16T01:58:15;5.47;;;1.88;;
67896;SDS011;54698;48.428;9.964;2022-10-16T02:00:43;4.80;;;2.03;;
67896;SDS011;54698;48.428;9.964;2022-10-16T02:03:12;4.82;;;1.98;;
67896;SDS011;54698;48.428;9.964;2022-10-16T02:05:41;5.93;;;2.13;;
67896;SDS011;54698;48.428;9.964;2022-10-16T02:08:12;5.00;;;2.30;;
67896;SDS011;54698;48.428;9.964;2022-10-16T02:10:38;8.55;;;1.92;;
67896;SDS011;54698;48.428;9.964;2022-10-16T02:13:06;7.05;;;2.42;;
67896;SDS011;54698;48.428;9.964;2022-10-16T02:15:36;6.25;;;2.28;;
67896;SDS011;54698;48.428;9.964;2022-10-16T02:18:03;7.85;;;2.28;;
67896;SDS011;54698;48.428;9.964;2022-10-16T02:20:32;6.90;;;1.95;;
67896;SDS011;54698;48.428;9.964;2022-10-16T02:23:05;4.70;;;2.05;;
67896;SDS011;54698;48.428;9.964;2022-10-16T02:25:37;5.55;;;2.35;;
67896;SDS011;54698;48.428;9.964;2022-10-16T02:28:06;8.43;;;2.80;;
67896;SDS011;54698;48.428;9.964;2022-10-16T02:30:37;5.55;;;2.17;;
67896;SDS011;54698;48.428;9.964;2022-10-16T02:33:09;6.85;;;2.58;;
67896;SDS011;54698;48.428;9.964;2022-10-16T02:35:37;6.07;;;2.85;;
67896;SDS011;54698;48.428;9.964;2022-10-16T02:38:05;10.52;;;2.55;;
67896;SDS011;54698;48.428;9.964;2022-10-16T02:40:33;6.15;;;2.60;;
67896;SDS011;54698;48.428;9.964;2022-10-16T02:42:59;5.80;;;2.50;;
67896;SDS011;54698;48.428;9.964;2022-10-16T02:45:25;5.35;;;2.65;;
67896;SDS011;54698;48.428;9.964;2022-10-16T02:47:51;9.90;;;2.50;;
67896;SDS011;54698;48.428;9.964;2022-10-16T02:50:18;4.88;;;2.30;;
67896;SDS011;54698;48.428;9.964;2022-10-16T02:52:44;8.63;;;2.53;;
67896;SDS011;54698;48.428;9.964;2022-10-16T02:55:09;6.53;;;2.30;;
67896;SDS011;54698;48.428;9.964;2022-10-16T02:57:35;6.25;;;2.97;;
67896;SDS011;54698;48.428;9.964;2022-10-16T03:00:02;8.00;;;2.72;;
67896;SDS011;54698;48.428;9.964;2022-10-16T03:02:28;7.80;;;2.63;;
67896;SDS011;54698;48.428;9.964;2022-10-16T03:04:54;5.55;;;2.50;;
67896;SDS011;54698;48.428;9.964;2022-10-16T03:07:21;5.43;;;2.53;;
67896;SDS011;54698;48.428;9.964;2022-10-16T03:09:47;7.00;;;2.97;;
67896;SDS011;54698;48.428;9.964;2022-10-16T03:12:13;8.18;;;3.30;;
67896;SDS011;54698;48.428;9.964;2022-10-16T03:14:39;6.18;;;2.63;;
67896;SDS011;54698;48.428;9.964;2022-10-16T03:17:04;7.60;;;4.13;;
67896;SDS011;54698;48.428;9.964;2022-10-16T03:19:30;10.48;;;3.30;;
67896;SDS011;54698;48.428;9.964;2022-10-16T03:21:56;8.05;;;3.58;;
67896;SDS011;54698;48.428;9.964;2022-10-16T03:24:23;6.43;;;3.10;;
67896;SDS011;54698;48.428;9.964;2022-10-16T03:26:49;6.15;;;2.58;;
67896;SDS011;54698;48.428;9.964;2022-10-16T03:29:15;6.13;;;3.38;;
67896;SDS011;54698;48.428;9.964;2022-10-16T03:31:41;7.70;;;2.95;;
67896;SDS011;54698;48.428;9.964;2022-10-16T03:34:07;6.20;;;3.22;;
67896;SDS011;54698;48.428;9.964;2022-10-16T03:36:32;6.25;;;3.15;;
67896;SDS011;54698;48.428;9.964;2022-10-16T03:38:58;6.55;;;3.38;;
67896;SDS011;54698;48.428;9.964;2022-10-16T03:41:25;6.97;;;4.13;;
67896;SDS011;54698;48.428;9.964;2022-10-16T03:43:51;7.18;;;3.78;;
67896;SDS011;54698;48.428;9.964;2022-10-16T03:46:17;8.45;;;2.95;;
67896;SDS011;54698;48.428;9.964;2022-10-16T03:48:43;7.40;;;3.75;;
67896;SDS011;54698;48.428;9.964;2022-10-16T03:51:09;7.55;;;3.40;;
67896;SDS011;54698;48.428;9.964;2022-10-16T03:53:34;7.45;;;3.22;;
67896;SDS011;54698;48.428;9.964;2022-10-16T03:56:00;7.50;;;4.22;;
67896;SDS011;54698;48.428;9.964;2022-10-16T03:58:27;8.93;;;5.03;;
67896;SDS011;54698;48.428;9.964;2022-10-16T04:00:53;9.30;;;4.97;;
67896;SDS011;54698;48.428;9.964;2022-10-16T04:03:19;9.02;;;4.45;;
67896;SDS011;54698;48.428;9.964;2022-10-16T04:05:45;8.65;;;4.25;;
67896;SDS011;54698;48.428;9.964;2022-10-16T04:08:11;8.65;;;3.97;;
67896;SDS011;54698;48.428;9.964;2022-10-16T04:10:36;6.72;;;3.22;;
67896;SDS011;54698;48.428;9.964;2022-10-16T04:13:02;9.45;;;3.97;;
67896;SDS011;54698;48.428;9.964;2022-10-16T04:15:29;10.13;;;4.25;;
67896;SDS011;54698;48.428;9.964;2022-10-16T04:17:55;6.85;;;3.88;;
67896;SDS011;54698;48.428;9.964;2022-10-16T04:20:21;9.30;;;4.18;;
67896;SDS011;54698;48.428;9.964;2022-10-16T04:22:47;8.00;;;3.10;;
67896;SDS011;54698;48.428;9.964;2022-10-16T04:25:13;6.82;;;4.00;;
67896;SDS011;54698;48.428;9.964;2022-10-16T04:27:39;6.65;;;3.03;;
67896;SDS011;54698;48.428;9.964;2022-10-16T04:30:05;8.57;;;4.75;;
67896;SDS011;54698;48.428;9.964;2022-10-16T04:32:33;10.55;;;4.60;;
67896;SDS011;54698;48.428;9.964;2022-10-16T04:34:59;9.88;;;3.88;;
67896;SDS011;54698;48.428;9.964;2022-10-16T04:37:25;6.72;;;3.63;;
67896;SDS011;54698;48.428;9.964;2022-10-16T04:39:52;9.25;;;3.80;;
67896;SDS011;54698;48.428;9.964;2022-10-16T04:42:18;7.03;;;3.63;;
67896;SDS011;54698;48.428;9.964;2022-10-16T04:44:45;6.72;;;3.45;;
67896;SDS011;54698;48.428;9.964;2022-10-16T04:47:11;8.93;;;2.63;;
67896;SDS011;54698;48.428;9.964;2022-10-16T04:49:38;5.63;;;2.75;;
67896;SDS011;54698;48.428;9.964;2022-10-16T04:52:04;7.57;;;2.97;;
67896;SDS011;54698;48.428;9.964;2022-10-16T04:54:30;7.97;;;2.40;;
67896;SDS011;54698;48.428;9.964;2022-10-16T04:56:56;5.15;;;2.15;;
67896;SDS011;54698;48.428;9.964;2022-10-16T04:59:22;6.57;;;3.00;;
67896;SDS011;54698;48.428;9.964;2022-10-16T05:01:48;5.78;;;2.33;;
67896;SDS011;54698;48.428;9.964;2022-10-16T05:04:14;6.65;;;2.55;;
67896;SDS011;54698;48.428;9.964;2022-10-16T05:06:42;7.43;;;3.17;;
67896;SDS011;54698;48.428;9.964;2022-10-16T05:09:08;6.65;;;2.67;;
67896;SDS011;54698;48.428;9.964;2022-10-16T05:11:34;7.10;;;2.97;;
67896;SDS011;54698;48.428;9.964;2022-10-16T05:14:00;8.75;;;2.60;;
67896;SDS011;54698;48.428;9.964;2022-10-16T05:16:26;6.13;;;2.40;;
67896;SDS011;54698;48.428;9.964;2022-10-16T05:18:52;8.40;;;2.88;;
67896;SDS011;54698;48.428;9.964;2022-10-16T05:21:18;6.78;;;2.80;;
67896;SDS011;54698;48.428;9.964;2022-10-16T05:23:48;7.78;;;2.60;;
67896;SDS011;54698;48.428;9.964;2022-10-16T05:26:14;8.27;;;3.17;;
67896;SDS011;54698;48.428;9.964;2022-10-16T05:28:40;5.85;;;2.45;;
67896;SDS011;54698;48.428;9.964;2022-10-16T05:31:06;6.90;;;2.67;;
67896;SDS011;54698;48.428;9.964;2022-10-16T05:33:33;6.30;;;2.22;;
67896;SDS011;54698;48.428;9.964;2022-10-16T05:36:00;6.10;;;2.85;;
67896;SDS011;54698;48.428;9.964;2022-10-16T05:38:27;7.38;;;3.28;;
67896;SDS011;54698;48.428;9.964;2022-10-16T05:40:54;7.13;;;2.70;;
67896;SDS011;54698;48.428;9.964;2022-10-16T05:43:20;5.97;;;3.08;;
67896;SDS011;54698;48.428;9.964;2022-10-16T05:45:53;7.13;;;3.08;;
67896;SDS011;54698;48.428;9.964;2022-10-16T05:48:20;5.80;;;3.08;;
67896;SDS011;54698;48.428;9.964;2022-10-16T05:50:46;6.70;;;2.97;;
67896;SDS011;54698;48.428;9.964;2022-10-16T05:53:12;7.07;;;2.63;;
67896;SDS011;54698;48.428;9.964;2022-10-16T05:55:40;9.70;;;2.47;;
67896;SDS011;54698;48.428;9.964;2022-10-16T05:58:07;6.75;;;2.58;;
67896;SDS011;54698;48.428;9.964;2022-10-16T06:00:33;5.28;;;2.25;;
67896;SDS011;54698;48.428;9.964;2022-10-16T06:02:59;6.80;;;2.70;;
67896;SDS011;54698;48.428;9.964;2022-10-16T06:05:25;7.22;;;3.22;;
67896;SDS011;54698;48.428;9.964;2022-10-16T06:07:51;5.05;;;2.28;;
67896;SDS011;54698;48.428;9.964;2022-10-16T06:10:17;5.93;;;2.33;;
67896;SDS011;54698;48.428;9.964;2022-10-16T06:12:46;6.43;;;2.58;;
67896;SDS011;54698;48.428;9.964;2022-10-16T06:15:13;6.88;;;2.22;;
67896;SDS011;54698;48.428;9.964;2022-10-16T06:17:39;6.38;;;2.72;;
67896;SDS011;54698;48.428;9.964;2022-10-16T06:20:05;6.03;;;2.22;;
67896;SDS011;54698;48.428;9.964;2022-10-16T06:22:31;5.72;;;2.58;;
67896;SDS011;54698;48.428;9.964;2022-10-16T06:24:57;5.22;;;2.60;;
67896;SDS011;54698;48.428;9.964;2022-10-16T06:27:23;5.93;;;2.33;;
67896;SDS011;54698;48.428;9.964;2022-10-16T06:29:49;5.13;;;2.53;;
67896;SDS011;54698;48.428;9.964;2022-10-16T06:32:16;4.72;;;2.03;;
67896;SDS011;54698;48.428;9.964;2022-10-16T06:34:42;5.93;;;2.00;;
67896;SDS011;54698;48.428;9.964;2022-10-16T06:37:09;4.95;;;1.83;;
67896;SDS011;54698;48.428;9.964;2022-10-16T06:39:34;3.83;;;1.63;;
67896;SDS011;54698;48.428;9.964;2022-10-16T06:42:00;3.53;;;1.52;;
67896;SDS011;54698;48.428;9.964;2022-10-16T06:44:26;4.90;;;1.83;;
67896;SDS011;54698;48.428;9.964;2022-10-16T06:46:52;4.93;;;1.60;;
67896;SDS011;54698;48.428;9.964;2022-10-16T06:49:19;5.75;;;1.85;;
67896;SDS011;54698;48.428;9.964;2022-10-16T06:51:45;5.53;;;2.05;;
67896;SDS011;54698;48.428;9.964;2022-10-16T06:54:10;3.90;;;1.50;;
67896;SDS011;54698;48.428;9.964;2022-10-16T06:56:36;6.15;;;1.58;;
67896;SDS011;54698;48.428;9.964;2022-10-16T06:59:02;5.63;;;1.55;;
67896;SDS011;54698;48.428;9.964;2022-10-16T07:01:28;3.95;;;1.60;;
67896;SDS011;54698;48.428;9.964;2022-10-16T07:03:55;4.13;;;1.55;;
67896;SDS011;54698;48.428;9.964;2022-10-16T07:06:23;6.95;;;1.60;;
67896;SDS011;54698;48.428;9.964;2022-10-16T07:08:50;7.22;;;2.28;;
67896;SDS011;54698;48.428;9.964;2022-10-16T07:11:17;7.05;;;2.53;;
67896;SDS011;54698;48.428;9.964;2022-10-16T07:13:45;7.75;;;1.98;;
67896;SDS011;54698;48.428;9.964;2022-10-16T07:16:13;6.65;;;2.03;;
67896;SDS011;54698;48.428;9.964;2022-10-16T07:18:41;9.02;;;1.85;;
67896;SDS011;54698;48.428;9.964;2022-10-16T07:21:09;3.45;;;1.70;;
67896;SDS011;54698;48.428;9.964;2022-10-16T07:23:39;4.28;;;1.50;;
67896;SDS011;54698;48.428;9.964;2022-10-16T07:26:06;4.20;;;1.40;;
67896;SDS011;54698;48.428;9.964;2022-10-16T07:28:33;5.80;;;1.77;;
67896;SDS011;54698;48.428;9.964;2022-10-16T07:31:02;4.80;;;1.50;;
67896;SDS011;54698;48.428;9.964;2022-10-16T07:33:29;4.55;;;1.52;;
67896;SDS011;54698;48.428;9.964;2022-10-16T07:35:55;7.45;;;1.30;;
67896;SDS011;54698;48.428;9.964;2022-10-16T07:38:21;5.68;;;1.48;;
67896;SDS011;54698;48.428;9.964;2022-10-16T07:40:55;6.15;;;1.80;;
67896;SDS011;54698;48.428;9.964;2022-10-16T07:43:22;6.20;;;1.90;;
67896;SDS011;54698;48.428;9.964;2022-10-16T07:45:48;6.50;;;2.00;;
67896;SDS011;54698;48.428;9.964;2022-10-16T07:48:15;5.40;;;1.75;;
67896;SDS011;54698;48.428;9.964;2022-10-16T07:50:42;8.68;;;2.08;;
67896;SDS011;54698;48.428;9.964;2022-10-16T07:53:08;5.40;;;1.98;;
67896;SDS011;54698;48.428;9.964;2022-10-16T07:55:35;5.32;;;2.00;;
67896;SDS011;54698;48.428;9.964;2022-10-16T07:58:02;5.07;;;2.28;;
67896;SDS011;54698;48.428;9.964;2022-10-16T08:00:29;5.53;;;1.67;;
67896;SDS011;54698;48.428;9.964;2022-10-16T08:02:56;4.65;;;1.77;;
67896;SDS011;54698;48.428;9.964;2022-10-16T08:05:22;4.20;;;1.90;;
67896;SDS011;54698;48.428;9.964;2022-10-16T08:07:48;8.15;;;2.17;;
67896;SDS011;54698;48.428;9.964;2022-10-16T08:10:19;6.40;;;2.33;;
67896;SDS011;54698;48.428;9.964;2022-10-16T08:12:47;5.78;;;1.70;;
67896;SDS011;54698;48.428;9.964;2022-10-16T08:15:14;6.07;;;2.20;;
67896;SDS011;54698;48.428;9.964;2022-10-16T08:17:40;4.95;;;2.50;;
67896;SDS011;54698;48.428;9.964;2022-10-16T08:20:07;7.05;;;2.42;;
67896;SDS011;54698;48.428;9.964;2022-10-16T08:22:34;6.75;;;2.42;;
67896;SDS011;54698;48.428;9.964;2022-10-16T08:25:00;6.45;;;2.30;;
67896;SDS011;54698;48.428;9.964;2022-10-16T08:27:30;8.77;;;2.88;;
67896;SDS011;54698;48.428;9.964;2022-10-16T08:29:56;5.60;;;2.60;;
67896;SDS011;54698;48.428;9.964;2022-10-16T08:32:23;6.63;;;2.75;;
67896;SDS011;54698;48.428;9.964;2022-10-16T08:34:49;6.68;;;2.83;;
67896;SDS011;54698;48.428;9.964;2022-10-16T08:37:15;7.82;;;2.50;;
67896;SDS011;54698;48.428;9.964;2022-10-16T08:39:41;9.18;;;2.30;;
67896;SDS011;54698;48.428;9.964;2022-10-16T08:42:11;6.55;;;2.10;;
67896;SDS011;54698;48.428;9.964;2022-10-16T08:45:02;5.53;;;2.13;;
67896;SDS011;54698;48.428;9.964;2022-10-16T08:47:50;9.73;;;2.13;;
67896;SDS011;54698;48.428;9.964;2022-10-16T08:50:35;4.90;;;1.70;;
67896;SDS011;54698;48.428;9.964;2022-10-16T08:53:04;7.13;;;1.90;;
67896;SDS011;54698;48.428;9.964;2022-10-16T08:55:32;4.03;;;1.65;;
67896;SDS011;54698;48.428;9.964;2022-10-16T08:58:07;3.78;;;1.35;;
67896;SDS011;54698;48.428;9.964;2022-10-16T09:00:38;5.90;;;2.10;;
67896;SDS011;54698;48.428;9.964;2022-10-16T09:03:06;4.07;;;1.58;;
67896;SDS011;54698;48.428;9.964;2022-10-16T09:05:45;4.18;;;1.80;;
67896;SDS011;54698;48.428;9.964;2022-10-16T09:08:21;8.93;;;2.38;;
67896;SDS011;54698;48.428;9.964;2022-10-16T09:10:56;7.55;;;2.17;;
67896;SDS011;54698;48.428;9.964;2022-10-16T09:13:26;6.55;;;1.95;;
67896;SDS011;54698;48.428;9.964;2022-10-16T09:16:10;4.32;;;1.77;;
67896;SDS011;54698;48.428;9.964;2022-10-16T09:18:48;6.72;;;1.83;;
67896;SDS011;54698;48.428;9.964;2022-10-16T09:21:21;5.93;;;1.80;;
67896;SDS011;54698;48.428;9.964;2022-10-16T09:23:51;6.88;;;1.70;;
67896;SDS011;54698;48.428;9.964;2022-10-16T09:26:17;6.38;;;2.00;;
67896;SDS011;54698;48.428;9.964;2022-10-16T09:28:43;5.35;;;2.13;;
67896;SDS011;54698;48.428;9.964;2022-10-16T09:31:12;5.78;;;1.90;;
67896;SDS011;54698;48.428;9.964;2022-10-16T09:33:42;3.53;;;1.45;;
67896;SDS011;54698;48.428;9.964;2022-10-16T09:36:12;5.95;;;2.08;;
67896;SDS011;54698;48.428;9.964;2022-10-16T09:38:38;5.70;;;2.45;;
67896;SDS011;54698;48.428;9.964;2022-10-16T09:41:14;4.28;;;1.60;;
67896;SDS011;54698;48.428;9.964;2022-10-16T09:43:46;6.72;;;1.83;;
67896;SDS011;54698;48.428;9.964;2022-10-16T09:46:21;5.13;;;2.42;;
67896;SDS011;54698;48.428;9.964;2022-10-16T09:48:53;6.85;;;1.60;;
67896;SDS011;54698;48.428;9.964;2022-10-16T09:51:23;5.38;;;2.38;;
67896;SDS011;54698;48.428;9.964;2022-10-16T09:53:54;4.50;;;2.00;;
67896;SDS011;54698;48.428;9.964;2022-10-16T09:56:22;5.15;;;1.88;;
67896;SDS011;54698;48.428;9.964;2022-10-16T09:58:51;4.70;;;1.50;;
67896;SDS011;54698;48.428;9.964;2022-10-16T10:01:19;3.65;;;1.33;;
67896;SDS011;54698;48.428;9.964;2022-10-16T10:03:46;2.60;;;1.10;;
67896;SDS011;54698;48.428;9.964;2022-10-16T10:06:21;5.47;;;1.55;;
67896;SDS011;54698;48.428;9.964;2022-10-16T10:08:54;5.18;;;1.20;;
67896;SDS011;54698;48.428;9.964;2022-10-16T10:11:42;2.42;;;1.20;;
67896;SDS011;54698;48.428;9.964;2022-10-16T10:14:15;3.72;;;1.40;;
67896;SDS011;54698;48.428;9.964;2022-10-16T10:16:48;2.45;;;1.20;;
67896;SDS011;54698;48.428;9.964;2022-10-16T10:19:16;3.80;;;1.10;;
67896;SDS011;54698;48.428;9.964;2022-10-16T10:21:45;4.88;;;1.40;;
67896;SDS011;54698;48.428;9.964;2022-10-16T10:24:12;4.40;;;1.17;;
67896;SDS011;54698;48.428;9.964;2022-10-16T10:26:41;4.35;;;1.38;;
67896;SDS011;54698;48.428;9.964;2022-10-16T10:29:16;6.72;;;1.23;;
67896;SDS011;54698;48.428;9.964;2022-10-16T10:31:55;4.55;;;1.48;;
67896;SDS011;54698;48.428;9.964;2022-10-16T10:34:35;3.70;;;1.30;;
67896;SDS011;54698;48.428;9.964;2022-10-16T10:37:24;5.45;;;1.25;;
67896;SDS011;54698;48.428;9.964;2022-10-16T10:40:03;4.82;;;1.40;;
67896;SDS011;54698;48.428;9.964;2022-10-16T10:42:57;3.53;;;1.27;;
67896;SDS011;54698;48.428;9.964;2022-10-16T10:45:34;4.43;;;1.10;;
67896;SDS011;54698;48.428;9.964;2022-10-16T10:48:12;8.27;;;1.40;;
67896;SDS011;54698;48.428;9.964;2022-10-16T10:50:51;2.80;;;1.05;;
67896;SDS011;54698;48.428;9.964;2022-10-16T10:53:28;4.70;;;1.33;;
67896;SDS011;54698;48.428;9.964;2022-10-16T10:56:05;2.97;;;1.05;;
67896;SDS011;54698;48.428;9.964;2022-10-16T10:58:49;6.20;;;1.30;;
67896;SDS011;54698;48.428;9.964;2022-10-16T11:01:33;5.15;;;1.50;;
67896;SDS011;54698;48.428;9.964;2022-10-16T11:04:20;3.60;;;1.35;;
67896;SDS011;54698;48.428;9.964;2022-10-16T11:07:24;4.28;;;2.20;;
67896;SDS011;54698;48.428;9.964;2022-10-16T11:09:56;7.40;;;1.73;;
67896;SDS011;54698;48.428;9.964;2022-10-16T11:12:27;4.65;;;1.50;;
67896;SDS011;54698;48.428;9.964;2022-10-16T11:14:58;6.50;;;1.85;;
67896;SDS011;54698;48.428;9.964;2022-10-16T11:17:31;3.50;;;1.10;;
67896;SDS011;54698;48.428;9.964;2022-10-16T11:20:04;4.80;;;1.67;;
67896;SDS011;54698;48.428;9.964;2022-10-16T11:22:41;4.07;;;1.30;;
67896;SDS011;54698;48.428;9.964;2022-10-16T11:25:14;3.10;;;1.35;;
67896;SDS011;54698;48.428;9.964;2022-10-16T11:27:47;4.25;;;1.67;;
67896;SDS011;54698;48.428;9.964;2022-10-16T11:30:18;4.55;;;1.67;;
67896;SDS011;54698;48.428;9.964;2022-10-16T11:32:54;3.53;;;1.63;;
67896;SDS011;54698;48.428;9.964;2022-10-16T11:35:32;4.00;;;1.35;;
67896;SDS011;54698;48.428;9.964;2022-10-16T11:38:09;4.35;;;1.33;;
67896;SDS011;54698;48.428;9.964;2022-10-16T11:40:53;4.07;;;1.65;;
67896;SDS011;54698;48.428;9.964;2022-10-16T11:43:25;4.45;;;1.75;;
67896;SDS011;54698;48.428;9.964;2022-10-16T11:45:58;4.25;;;1.60;;
67896;SDS011;54698;48.428;9.964;2022-10-16T11:48:30;3.80;;;1.38;;
67896;SDS011;54698;48.428;9.964;2022-10-16T11:51:02;6.25;;;1.70;;
67896;SDS011;54698;48.428;9.964;2022-10-16T11:53:39;6.32;;;1.60;;
67896;SDS011;54698;48.428;9.964;2022-10-16T11:56:19;8.00;;;1.50;;
67896;SDS011;54698;48.428;9.964;2022-10-16T11:58:50;4.97;;;1.15;;
67896;SDS011;54698;48.428;9.964;2022-10-16T12:01:22;3.58;;;1.02;;
67896;SDS011;54698;48.428;9.964;2022-10-16T12:03:58;4.57;;;1.17;;
67896;SDS011;54698;48.428;9.964;2022-10-16T12:06:33;4.65;;;1.23;;
67896;SDS011;54698;48.428;9.964;2022-10-16T12:09:02;7.75;;;1.25;;
67896;SDS011;54698;48.428;9.964;2022-10-16T12:11:37;2.70;;;1.05;;
67896;SDS011;54698;48.428;9.964;2022-10-16T12:14:04;6.72;;;1.48;;
67896;SDS011;54698;48.428;9.964;2022-10-16T12:16:59;3.78;;;1.30;;
67896;SDS011;54698;48.428;9.964;2022-10-16T12:19:28;4.65;;;1.42;;
67896;SDS011;54698;48.428;9.964;2022-10-16T12:21:56;3.35;;;1.10;;
67896;SDS011;54698;48.428;9.964;2022-10-16T12:24:28;3.83;;;1.10;;
67896;SDS011;54698;48.428;9.964;2022-10-16T12:27:00;2.60;;;0.93;;
67896;SDS011;54698;48.428;9.964;2022-10-16T12:29:32;3.55;;;1.10;;
67896;SDS011;54698;48.428;9.964;2022-10-16T12:32:02;3.55;;;1.00;;
67896;SDS011;54698;48.428;9.964;2022-10-16T12:34:33;3.58;;;1.45;;
67896;SDS011;54698;48.428;9.964;2022-10-16T12:37:08;5.13;;;1.20;;
67896;SDS011;54698;48.428;9.964;2022-10-16T12:39:39;4.82;;;1.08;;
67896;SDS011;54698;48.428;9.964;2022-10-16T12:42:19;4.53;;;1.05;;
67896;SDS011;54698;48.428;9.964;2022-10-16T12:44:48;3.25;;;1.13;;
67896;SDS011;54698;48.428;9.964;2022-10-16T12:47:22;3.53;;;1.10;;
67896;SDS011;54698;48.428;9.964;2022-10-16T12:50:01;4.60;;;1.00;;
67896;SDS011;54698;48.428;9.964;2022-10-16T12:52:34;4.00;;;0.90;;
67896;SDS011;54698;48.428;9.964;2022-10-16T12:55:04;2.20;;;0.80;;
67896;SDS011;54698;48.428;9.964;2022-10-16T12:57:41;4.32;;;1.25;;
67896;SDS011;54698;48.428;9.964;2022-10-16T13:00:24;4.35;;;1.13;;
67896;SDS011;54698;48.428;9.964;2022-10-16T13:03:05;3.40;;;0.90;;
67896;SDS011;54698;48.428;9.964;2022-10-16T13:06:01;2.47;;;0.88;;
67896;SDS011;54698;48.428;9.964;2022-10-16T13:08:43;5.40;;;1.08;;
67896;SDS011;54698;48.428;9.964;2022-10-16T13:11:33;5.13;;;1.20;;
67896;SDS011;54698;48.428;9.964;2022-10-16T13:14:29;3.75;;;1.25;;
67896;SDS011;54698;48.428;9.964;2022-10-16T13:17:20;2.28;;;1.00;;
67896;SDS011;54698;48.428;9.964;2022-10-16T13:19:55;4.05;;;1.73;;
67896;SDS011;54698;48.428;9.964;2022-10-16T13:22:32;2.47;;;0.80;;
67896;SDS011;54698;48.428;9.964;2022-10-16T13:25:09;3.40;;;0.90;;
67896;SDS011;54698;48.428;9.964;2022-10-16T13:27:49;3.20;;;0.90;;
67896;SDS011;54698;48.428;9.964;2022-10-16T13:30:23;3.80;;;0.80;;
67896;SDS011;54698;48.428;9.964;2022-10-16T13:32:53;3.20;;;1.63;;
67896;SDS011;54698;48.428;9.964;2022-10-16T13:35:26;2.47;;;0.90;;
67896;SDS011;54698;48.428;9.964;2022-10-16T13:38:03;3.63;;;0.88;;
67896;SDS011;54698;48.428;9.964;2022-10-16T13:40:30;2.10;;;0.70;;
67896;SDS011;54698;48.428;9.964;2022-10-16T13:42:59;3.45;;;1.00;;
67896;SDS011;54698;48.428;9.964;2022-10-16T13:45:26;6.85;;;2.30;;
67896;SDS011;54698;48.428;9.964;2022-10-16T13:48:00;1.92;;;0.65;;
67896;SDS011;54698;48.428;9.964;2022-10-16T13:50:27;14.02;;;1.30;;
67896;SDS011;54698;48.428;9.964;2022-10-16T13:53:02;3.72;;;0.88;;
67896;SDS011;54698;48.428;9.964;2022-10-16T13:55:29;2.88;;;0.85;;
67896;SDS011;54698;48.428;9.964;2022-10-16T13:58:04;4.90;;;1.08;;
67896;SDS011;54698;48.428;9.964;2022-10-16T14:00:33;3.90;;;0.88;;
67896;SDS011;54698;48.428;9.964;2022-10-16T14:03:01;2.90;;;0.85;;
67896;SDS011;54698;48.428;9.964;2022-10-16T14:05:30;4.65;;;1.00;;
67896;SDS011;54698;48.428;9.964;2022-10-16T14:07:55;4.57;;;1.23;;
67896;SDS011;54698;48.428;9.964;2022-10-16T14:10:23;4.25;;;0.90;;
67896;SDS011;54698;48.428;9.964;2022-10-16T14:12:57;3.55;;;0.80;;
67896;SDS011;54698;48.428;9.964;2022-10-16T14:15:24;4.38;;;1.08;;
67896;SDS011;54698;48.428;9.964;2022-10-16T14:17:52;4.38;;;1.02;;
67896;SDS011;54698;48.428;9.964;2022-10-16T14:20:18;1.85;;;0.70;;
67896;SDS011;54698;48.428;9.964;2022-10-16T14:22:57;2.90;;;0.87;;
67896;SDS011;54698;48.428;9.964;2022-10-16T14:25:26;5.60;;;1.10;;
67896;SDS011;54698;48.428;9.964;2022-10-16T14:27:57;2.97;;;1.00;;
67896;SDS011;54698;48.428;9.964;2022-10-16T14:30:25;6.57;;;1.38;;
67896;SDS011;54698;48.428;9.964;2022-10-16T14:32:55;5.32;;;1.25;;
67896;SDS011;54698;48.428;9.964;2022-10-16T14:35:23;3.08;;;1.00;;
67896;SDS011;54698;48.428;9.964;2022-10-16T14:37:52;2.90;;;0.82;;
67896;SDS011;54698;48.428;9.964;2022-10-16T14:40:19;3.90;;;1.10;;
67896;SDS011;54698;48.428;9.964;2022-10-16T14:42:48;4.50;;;0.93;;
67896;SDS011;54698;48.428;9.964;2022-10-16T14:45:15;7.90;;;1.05;;
67896;SDS011;54698;48.428;9.964;2022-10-16T14:47:47;4.45;;;1.10;;
67896;SDS011;54698;48.428;9.964;2022-10-16T14:50:16;3.55;;;0.95;;
67896;SDS011;54698;48.428;9.964;2022-10-16T14:52:42;2.88;;;0.93;;
67896;SDS011;54698;48.428;9.964;2022-10-16T14:55:08;6.65;;;1.10;;
67896;SDS011;54698;48.428;9.964;2022-10-16T14:57:35;3.50;;;1.00;;
67896;SDS011;54698;48.428;9.964;2022-10-16T15:00:03;2.95;;;1.00;;
67896;SDS011;54698;48.428;9.964;2022-10-16T15:02:36;3.88;;;1.10;;
67896;SDS011;54698;48.428;9.964;2022-10-16T15:05:07;2.70;;;0.90;;
67896;SDS011;54698;48.428;9.964;2022-10-16T15:07:40;3.83;;;0.98;;
67896;SDS011;54698;48.428;9.964;2022-10-16T15:10:06;3.47;;;1.00;;